AirNav   ATP
 
 894 users online  

1A3 Martin Campbell Field Airport
Copperhill, Tennessee, USA

GOING TO COPPERHILL?


FAA INFORMATION EFFECTIVE 29 MARCH 2018

Location

FAA Identifier: 1A3
Lat/Long: 35-00-56.9000N / 084-20-48.6000W
35-00.948333N / 084-20.810000W
35.0158056 / -84.3468333
(estimated)
Elevation: 1788.9 ft. / 545.3 m (surveyed)
Variation: 05W (2010)
From city: 3 miles NE of COPPERHILL, TN
Time zone: UTC -4 (UTC -5 during Standard Time)
Zip code: 37317

Airport Operations

Airport use: Open to the public
Activation date: 12/1946
Control tower: no
ARTCC: ATLANTA CENTER
FSS: NASHVILLE FLIGHT SERVICE STATION
NOTAMs facility: BNA (NOTAM-D service available)
Attendance: IRREG
Wind indicator: yes
Segmented circle: yes

Airport Communications

CTAF: 122.9
WX AWOS-3 at DZJ (20 nm SE): 119.325 (706-745-9271)
  • APCH/DEP SVC PRVDD BY ATLANTA ARTCC ON FREQS 133.1/342.425 (MOUNT OGLETHORPE RCAG).

Nearby radio navigation aids

VOR radial/distance  VOR name  Freq  Var
HRSr282/21.6HARRIS VORTAC109.8000E
GQOr084/39.8CHOO CHOO VORTAC115.8001E

 
NDB name  Hdg/Dist  Freq  Var  ID
MC MINN COUNTY158/25.024203WMMI -- -- ..

Airport Services

Fuel available: 100LL
FUEL 24 HR CREDIT CARD SVC AVBL.
Parking: hangars and tiedowns
Bottled oxygen: NONE
Bulk oxygen: NONE

Runway Information

Runway 2/20

Dimensions: 3500 x 75 ft. / 1067 x 23 m
Surface: asphalt, in good condition
Weight bearing capacity: 
Single wheel: 30.0
Double wheel: 45.0
RUNWAY 2  RUNWAY 20
Latitude: 35-00.669105N35-01.228858N
Longitude: 084-20.894662W084-20.725090W
Elevation: 1771.8 ft.1788.7 ft.
Gradient: 0.5% UP0.5%
Traffic pattern: leftright
Runway heading: 019 magnetic, 014 true199 magnetic, 194 true
Markings: nonprecision, in good conditionnonprecision, in good condition
Visual slope indicator: 2-light PAPI on left (3.00 degrees glide path)
RY 02 VASI OTS INDEFLY.
2-light PAPI on left (4.00 degrees glide path)
RY 20 VASI OTS INDEFLY.
Runway end identifier lights: yes
OTS INDEFLY.
yes
OTS INDEFLY.
Touchdown point: yes, no lightsyes, no lights
Obstructions: 29 ft. tree, 440 ft. from runway, 202 ft. left of centerline, 8:1 slope to clear
RWY 02 APCH RATIO 28:1 TO DSPLCD THD
20 ft. tree, 222 ft. from runway, 97 ft. left of centerline, 1:1 slope to clear
RWY 20 APCH RATIO 25:1 TO DSPLCH THLD

Airport Ownership and Management from official FAA records

Ownership: Publicly-owned
Owner: POLK COUNTY
COUNTY COURTHOUSE
BENTON, TN 37307
Phone 423-338-4527
Manager: ALAN FROSCH
971 AIRPORT ROAD
COPPERHILL, TN 37317
Phone 423-496-9465

Airport Operational Statistics

Aircraft based on the field: 15
Single engine airplanes: 14
Multi engine airplanes: 1
    
Aircraft operations: avg 71/week *
59% transient general aviation
41% local general aviation
* for 12-month period ending 30 November 2016

Additional Remarks

BIRDS ON & INVOF ARPT.
ARPT CLSD AT NIGHT.
AIRPORT BEACON OTS. RY 2/20 LIGHTS OTS.

Instrument Procedures

NOTE: All procedures below are presented as PDF files. If you need a reader for these files, you should download the free Adobe Reader.

NOT FOR NAVIGATION. Please procure official charts for flight.
FAA instrument procedures published for use from 29 March 2018 at 0901Z to 26 April 2018 at 0900Z.

 
IAPs - Instrument Approach Procedures
RNAV (GPS) RWY 02   download (210KB)
RNAV (GPS) RWY 20   download (212KB)
NOTE: Special Take-Off Minimums/Departure Procedures apply   download (126KB)

Other nearby airports with instrument procedures:

KDZJ - Blairsville Airport (20 nm SE)
KRZR - Cleveland Regional Jetport (25 nm NW)
KMMI - McMinn County Airport (25 nm NW)
KRHP - Western Carolina Regional Airport (26 nm NE)
KDNN - Dalton Municipal Airport (31 nm SW)
 
Loc | Ops | Rwys | IFR | FBO | Links
Com | Nav | Svcs | Stats | Notes

AirNav Hotels Sweepstakes
 
Area around 1A3 (Martin Campbell Field Airport)
 
Road maps at: MapQuest Bing Google
 
Aerial photo
WARNING: Photo may not be current or correct
Aerial photo of 1A3 (Martin Campbell Field Airport)
Photo by Alan Frosch
Taken in the Spring of 2016
looking north.

Do you have a better or more recent aerial photo of Martin Campbell Field Airport that you would like to share? If so, please send us your photo.

 
Sectional chart

 
Airport distance calculator
Flying to Martin Campbell Field Airport? Find the distance to fly.

From to 1A3

Sunrise and sunset
Times for 25-Apr-2018
 Local
(UTC-4)
 Zulu
(UTC)
Morning civil twilight06:2710:27
Sunrise06:5410:54
Sunset20:1700:17
Evening civil twilight20:4300:43

Current date and time
Zulu (UTC)  26-Apr-2018 01:48:43
Local (UTC-4)  25-Apr-2018 21:48:43
 
METAR
KDZJ 
20nm SE 
260135Z AUTO 00000KT 10SM OVC041 13/09 A2995 RMK AO2 T01260091
K49A 
25nm S 
260135Z AUTO 00000KT 10SM CLR 12/10 A2996 RMK AO2 T01170098
KRZR 
25nm NW 
260135Z AUTO 00000KT 10SM OVC048 13/12 A2993 RMK A01
KMMI 
25nm NW 
260135Z AUTO 00000KT 10SM SCT055 13/11 A2996 RMK A01
KRHP 
26nm NE 
260135Z AUTO 00000KT 10SM OVC030 13/10 A2994 RMK AO2 T01280097
KMNV 
32nm N 
260135Z AUTO 00000KT 10SM OVC055 14/11 A2994 RMK A01
KJZP 
34nm S 
260135Z AUTO 34004KT A2996 RMK AO2 PWINO PNO
TAF
KCHA 
42nm W 
251720Z 2518/2618 33009KT P6SM BKN050 FM260100 33005KT P6SM BKN080 FM261000 VRB03KT P6SM VCSH OVC030 FM261300 VRB03KT P6SM -SHRA OVC015
NOTAMs
Click for the latest NOTAMs
NOTAMs are issued by the DoD/FAA and will open in a separate window not controlled by AirNav.

 

 
 

FBO, Fuel Providers, and Aircraft Ground Support

  
 Business Name 
 
 Contact 
 
 Services / Description 
 
Fuel Prices
 
Comments
  
Whitewater Aviation Corporation 423-496-9465
423-210-7681
[web site]
[email]
Airport management, Aviation fuel, Aircraft parking (ramp or tiedown), Hangars, Hangar leasing / sales, Aircraft maintenance, Rental cars on site, ...

More info about Whitewater Aviation Corporation
Shell
100LL
SS $3.99 
 Updated 25-Apr-2018
 
   7 read write
SS=Self service
Update Fuel Prices
 

Would you like to see your business listed on this page?

 If your business provides an interesting product or service to pilots, flight crews, aircraft, or users of the Martin Campbell Field Airport, you should consider listing it here.  To start the listing process, click on the button below
 
Add a business
 

Other Pages about Martin Campbell Field Airport

Update a link
 
Copyright © AirNav, LLC. All rights reserved. Privacy Policy  Contact